createdAt,value
2018-03-29T14:06:02.193Z,52.3
2018-03-29T14:07:03.552Z,52.4
2018-03-29T14:08:05.329Z,52.3
2018-03-29T14:09:08.096Z,52.4
2018-03-29T14:10:09.452Z,52.6
2018-03-29T14:11:10.816Z,52.8
2018-03-29T14:12:12.178Z,52.3
2018-03-29T14:13:14.345Z,52.5
2018-03-29T14:14:15.712Z,52.3
2018-03-29T14:15:17.070Z,52.2
2018-03-29T14:16:18.438Z,51.9
2018-03-29T14:17:19.824Z,51.9
2018-03-29T14:18:21.180Z,51.9
2018-03-29T14:19:22.551Z,52.0
2018-03-29T14:20:23.920Z,51.8
2018-03-29T14:21:25.788Z,51.8
2018-03-29T14:22:27.153Z,52.0
2018-03-29T14:23:30.005Z,51.9
2018-03-29T14:24:31.368Z,51.3
2018-03-29T14:25:33.281Z,52.0
2018-03-29T14:26:35.458Z,51.4
2018-03-29T14:27:36.837Z,51.5
2018-03-29T14:28:38.202Z,51.9
2018-03-29T14:29:39.592Z,51.6
2018-03-29T14:30:40.956Z,51.7
2018-03-29T14:31:43.007Z,51.9
2018-03-29T14:32:44.385Z,51.5
2018-03-29T14:33:45.745Z,51.7
2018-03-29T14:34:47.118Z,51.9
2018-03-29T14:35:48.520Z,51.7
2018-03-29T14:36:49.833Z,52.0
2018-03-29T14:37:51.197Z,51.8
2018-03-29T14:38:52.811Z,51.3
2018-03-29T14:39:54.756Z,51.3
2018-03-29T14:40:56.726Z,51.4
2018-03-29T14:41:58.097Z,51.4
2018-03-29T14:43:04.117Z,51.5
2018-03-29T14:44:07.043Z,51.6
2018-03-29T14:46:11.780Z,51.3
2018-03-29T14:47:13.148Z,51.3
2018-03-29T14:48:15.855Z,51.3
2018-03-29T14:49:20.212Z,51.3
2018-03-29T14:50:24.397Z,51.3
2018-03-29T14:51:31.788Z,51.0
2018-03-29T14:52:32.166Z,50.8
2018-03-29T14:53:34.688Z,51.1
2018-03-29T14:54:38.876Z,51.1
2018-03-29T14:55:44.370Z,51.1
2018-03-29T14:56:48.816Z,51.4
2018-03-29T14:57:51.676Z,51.2
2018-03-29T14:58:54.011Z,51.5
2018-03-29T14:59:56.169Z,51.4
2018-03-29T15:02:01.857Z,51.3
2018-03-29T15:03:04.082Z,50.8
2018-03-29T15:04:06.716Z,51.2
2018-03-29T15:05:08.804Z,50.7
2018-03-29T15:06:14.364Z,50.8
2018-03-29T15:07:16.918Z,51.0
2018-03-29T15:08:19.541Z,50.4
2018-03-29T15:09:25.107Z,50.4
2018-03-29T15:10:29.003Z,50.4
2018-03-29T15:11:33.000Z,50.3
2018-03-29T15:12:35.802Z,51.0
2018-03-29T15:13:40.149Z,50.6
2018-03-29T15:14:45.568Z,50.6
2018-03-29T15:15:48.301Z,50.6
2018-03-29T15:16:50.316Z,51.0
2018-03-29T15:18:55.190Z,50.5
2018-03-29T15:19:56.559Z,50.6
2018-03-29T15:21:00.567Z,50.6
2018-03-29T15:22:01.938Z,50.6
2018-03-29T15:23:03.982Z,50.9
2018-03-29T15:24:05.340Z,51.0
2018-03-29T15:25:09.491Z,50.3
2018-03-29T15:26:11.822Z,50.5
2018-03-29T15:27:13.182Z,50.7
2018-03-29T15:28:15.808Z,50.6
2018-03-29T15:29:20.144Z,50.6
2018-03-29T15:30:22.590Z,50.8
2018-03-29T15:31:26.612Z,50.9
2018-03-29T15:32:29.553Z,50.3
2018-03-29T15:33:30.924Z,50.5
2018-03-29T15:35:37.950Z,50.5
2018-03-29T15:36:42.012Z,50.5
2018-03-29T15:37:46.635Z,50.3
2018-03-29T15:38:48.038Z,50.7
2018-03-29T15:39:52.466Z,50.5
2018-03-29T15:40:54.875Z,50.4
2018-03-29T15:41:57.451Z,50.5
2018-03-29T15:44:00.963Z,50.4
2018-03-29T15:45:03.485Z,50.6
2018-03-29T15:46:05.580Z,50.9
2018-03-29T15:47:09.964Z,50.7
2018-03-29T15:48:14.271Z,50.9
2018-03-29T15:49:15.636Z,50.4
2018-03-29T15:50:17.996Z,50.4
2018-03-29T15:51:20.744Z,50.4
2018-03-29T15:52:22.113Z,50.5
2018-03-29T15:53:23.477Z,50.9
2018-03-29T15:54:26.782Z,50.6
2018-03-29T15:55:28.149Z,50.5
2018-03-29T15:56:29.507Z,51.0
2018-03-29T15:57:30.887Z,51.1
2018-03-29T15:58:32.243Z,50.6
2018-03-29T15:59:33.603Z,51.2
2018-03-29T16:00:34.962Z,51.0
2018-03-29T16:01:38.058Z,51.1
2018-03-29T16:02:39.425Z,51.5
2018-03-29T16:03:40.775Z,51.3
2018-03-29T16:04:42.143Z,51.3
2018-03-29T16:05:43.506Z,51.3
2018-03-29T16:06:44.857Z,51.3
2018-03-29T16:07:46.228Z,51.3
2018-03-29T16:08:47.587Z,51.1
2018-03-29T16:09:50.583Z,51.0
2018-03-29T16:10:51.948Z,51.0
2018-03-29T16:11:53.306Z,51.4
2018-03-29T16:12:54.680Z,51.8
2018-03-29T16:13:56.046Z,51.9
2018-03-29T16:14:58.149Z,51.7
2018-03-29T16:16:00.481Z,51.6
2018-03-29T16:17:01.837Z,52.1
2018-03-29T16:18:03.197Z,51.9
2018-03-29T16:19:04.559Z,52.1
2018-03-29T16:20:05.921Z,51.9
2018-03-29T16:21:07.278Z,52.4
2018-03-29T16:22:08.646Z,52.4
2018-03-29T16:23:11.661Z,52.0
2018-03-29T16:24:13.022Z,52.1
2018-03-29T16:25:15.357Z,52.6
2018-03-29T16:26:17.474Z,52.4
2018-03-29T16:27:18.839Z,52.6
2018-03-29T16:28:21.156Z,52.8
2018-03-29T16:29:22.513Z,52.8
2018-03-29T16:30:24.608Z,52.7
2018-03-29T16:31:25.966Z,52.6
2018-03-29T16:32:27.342Z,52.3
2018-03-29T16:33:28.708Z,52.8
2018-03-29T16:34:30.090Z,52.8
2018-03-29T16:35:31.442Z,52.8
2018-03-29T16:36:33.689Z,52.7
2018-03-29T16:37:37.133Z,52.7
2018-03-29T16:38:39.853Z,52.8
2018-03-29T16:39:40.365Z,52.7
2018-03-29T16:40:42.534Z,52.8
2018-03-29T16:41:43.895Z,52.8
2018-03-29T16:42:45.258Z,52.7
2018-03-29T16:43:46.621Z,52.9
2018-03-29T16:44:49.294Z,53.1
2018-03-29T16:45:51.175Z,53.3
2018-03-29T16:46:52.529Z,53.4
2018-03-29T16:47:53.908Z,53.3
2018-03-29T16:48:56.363Z,53.4
2018-03-29T16:49:57.179Z,53.3
2018-03-29T16:50:59.495Z,53.2
2018-03-29T16:52:02.034Z,53.1
2018-03-29T16:53:03.396Z,53.3
2018-03-29T16:54:04.768Z,53.0
2018-03-29T16:55:06.123Z,53.4
2018-03-29T16:56:08.306Z,53.0
2018-03-29T16:57:10.864Z,53.3
2018-03-29T16:58:11.520Z,53.7
2018-03-29T16:59:12.878Z,53.5
2018-03-29T17:00:14.238Z,53.3
2018-03-29T17:01:16.156Z,53.5
2018-03-29T17:02:17.516Z,53.6
2018-03-29T17:03:18.876Z,53.9
2018-03-29T17:04:20.231Z,53.9
2018-03-29T17:05:22.172Z,54.0
2018-03-29T17:06:23.539Z,54.1
2018-03-29T17:07:24.891Z,54.0
2018-03-29T17:08:26.253Z,53.9
2018-03-29T17:09:27.614Z,54.0
2018-03-29T17:10:28.975Z,54.2
2018-03-29T17:11:30.348Z,54.3
2018-03-29T17:12:31.710Z,54.1
2018-03-29T17:13:33.071Z,54.1
2018-03-29T17:14:35.750Z,54.2
2018-03-29T17:15:37.112Z,54.0
2018-03-29T17:16:39.253Z,54.2
2018-03-29T17:17:40.610Z,54.0
2018-03-29T17:18:42.864Z,54.2
2018-03-29T17:19:45.007Z,54.2
2018-03-29T17:20:47.168Z,54.4
2018-03-29T17:21:49.316Z,54.1
2018-03-29T17:22:51.430Z,54.2
2018-03-29T17:23:52.787Z,54.3
2018-03-29T17:24:54.873Z,54.1
2018-03-29T17:25:56.206Z,54.2
2018-03-29T17:26:58.112Z,54.2
2018-03-29T17:27:59.477Z,54.4
2018-03-29T17:29:00.852Z,54.3
2018-03-29T17:30:03.034Z,54.3
2018-03-29T17:31:04.383Z,54.5
2018-03-29T17:32:05.739Z,54.4
2018-03-29T17:33:07.100Z,54.6
2018-03-29T17:34:08.455Z,54.6
2018-03-29T17:35:09.806Z,54.7
2018-03-29T17:36:11.870Z,54.7
2018-03-29T17:37:14.662Z,54.7
2018-03-29T17:38:16.588Z,54.7
2018-03-29T17:39:19.370Z,54.9
2018-03-29T17:40:21.879Z,55.3
2018-03-29T17:41:22.748Z,55.1
2018-03-29T17:42:25.032Z,55.3
2018-03-29T17:43:27.995Z,54.9
2018-03-29T17:44:32.977Z,54.9
2018-03-29T17:45:36.974Z,54.7
2018-03-29T17:46:42.564Z,55.4
2018-03-29T17:47:46.875Z,55.4
2018-03-29T17:48:53.897Z,54.7
2018-03-29T17:49:58.873Z,55.1
2018-03-29T17:51:02.447Z,55.2
2018-03-29T17:52:06.142Z,55.2
2018-03-29T17:53:09.429Z,54.7
2018-03-29T17:55:14.869Z,55.0
2018-03-29T17:56:19.865Z,55.0
2018-03-29T17:58:32.168Z,55.5
2018-03-29T17:59:36.318Z,55.6
2018-03-29T18:01:47.451Z,56.0
2018-03-29T18:04:03.133Z,56.5
2018-03-29T18:05:07.993Z,56.2
2018-03-29T18:06:12.090Z,56.3
2018-03-29T18:07:16.252Z,56.5
2018-03-29T18:08:18.734Z,56.5
2018-03-29T18:09:22.209Z,56.7
2018-03-29T18:10:25.037Z,57.1
2018-03-29T18:11:29.263Z,57.4
2018-03-29T18:12:30.618Z,57.2
2018-03-29T18:13:32.899Z,57.2
2018-03-29T18:14:35.005Z,57.4
2018-03-29T18:15:36.945Z,57.3
2018-03-29T18:16:39.208Z,57.8
2018-03-29T18:17:41.470Z,57.8
2018-03-29T18:18:43.430Z,58.0
2018-03-29T18:19:45.708Z,57.9
2018-03-29T18:20:47.897Z,58.6
2018-03-29T18:21:49.861Z,58.7
2018-03-29T18:22:52.189Z,58.5
2018-03-29T18:23:54.298Z,58.6
2018-03-29T18:24:56.329Z,58.9
2018-03-29T18:25:57.715Z,59.1
2018-03-29T18:26:59.113Z,59.1
2018-03-29T18:28:00.551Z,59.8
2018-03-29T18:29:03.633Z,59.4
2018-03-29T18:30:05.776Z,59.7
2018-03-29T18:31:07.796Z,59.6
2018-03-29T18:32:10.245Z,59.3
2018-03-29T18:33:12.204Z,59.7
2018-03-29T18:34:15.003Z,60.0
2018-03-29T18:35:18.324Z,60.2
2018-03-29T18:36:22.192Z,60.2
2018-03-29T18:37:24.192Z,60.3
2018-03-29T18:38:28.765Z,60.2
2018-03-29T18:39:30.986Z,60.4
2018-03-29T18:40:33.104Z,60.3
2018-03-29T18:41:35.236Z,60.9
2018-03-29T18:42:39.292Z,61.0
2018-03-29T18:43:39.737Z,60.9
2018-03-29T18:44:41.680Z,60.9
2018-03-29T18:45:44.063Z,60.9
2018-03-29T18:46:46.293Z,61.4
2018-03-29T18:47:47.670Z,61.2
2018-03-29T18:48:49.052Z,61.3
2018-03-29T18:49:50.510Z,61.5
2018-03-29T18:50:52.564Z,61.5
2018-03-29T18:51:54.902Z,61.4
2018-03-29T18:52:56.942Z,61.0
2018-03-29T18:53:59.389Z,61.6
2018-03-29T18:55:01.592Z,61.7
2018-03-29T18:56:03.770Z,61.5
2018-03-29T18:57:06.161Z,61.7
2018-03-29T18:58:08.452Z,61.6
2018-03-29T18:59:10.563Z,61.8
2018-03-29T19:00:13.006Z,61.9
2018-03-29T19:01:15.227Z,61.5
2018-03-29T19:02:17.074Z,61.5
2018-03-29T19:03:21.294Z,62.1
2018-03-29T19:04:23.430Z,62.3
2018-03-29T19:05:25.390Z,62.3
2018-03-29T19:06:27.657Z,62.0
2018-03-29T19:07:29.781Z,62.7
2018-03-29T19:08:31.750Z,62.5
2018-03-29T19:09:33.194Z,62.6
2018-03-29T19:10:35.506Z,62.7
2018-03-29T19:11:38.042Z,63.4
2018-03-29T19:12:40.301Z,63.4
2018-03-29T19:13:42.329Z,62.7
2018-03-29T19:14:44.355Z,62.6
2018-03-29T19:15:46.617Z,62.3
2018-03-29T19:16:48.807Z,62.6
2018-03-29T19:17:50.933Z,62.6
2018-03-29T19:18:53.299Z,63.2
2018-03-29T19:19:54.786Z,62.8
2018-03-29T19:20:57.075Z,63.7
2018-03-29T19:21:59.000Z,63.4
2018-03-29T19:23:01.352Z,64.1
2018-03-29T19:24:01.770Z,63.8
2018-03-29T19:25:03.809Z,64.1
2018-03-29T19:26:05.729Z,64.6
2018-03-29T19:27:07.994Z,65.2
2018-03-29T19:28:10.385Z,64.9
2018-03-29T19:29:12.484Z,65.4
2018-03-29T19:30:14.537Z,65.5
2018-03-29T19:31:16.891Z,65.8
2018-03-29T19:32:19.032Z,65.8
2018-03-29T19:33:21.064Z,66.0
2018-03-29T19:34:23.380Z,66.3
2018-03-29T19:35:25.528Z,66.4
2018-03-29T19:36:27.515Z,66.5
2018-03-29T19:37:29.419Z,66.8
2018-03-29T19:38:31.607Z,66.8
2018-03-29T19:39:33.070Z,66.5
2018-03-29T19:40:34.485Z,66.5
2018-03-29T19:41:36.486Z,66.6
2018-03-29T19:42:38.774Z,67.1
2018-03-29T19:43:40.890Z,67.0
2018-03-29T19:44:42.812Z,67.3
2018-03-29T19:45:45.179Z,67.3
2018-03-29T19:46:47.319Z,67.2
2018-03-29T19:47:49.317Z,67.0
2018-03-29T19:48:51.621Z,67.3
2018-03-29T19:49:53.994Z,66.4
2018-03-29T19:50:56.026Z,66.5
2018-03-29T19:51:58.297Z,66.6
2018-03-29T19:53:00.460Z,66.5
2018-03-29T19:54:02.554Z,67.1
2018-03-29T19:55:04.889Z,67.1
2018-03-29T19:56:07.076Z,67.0
2018-03-29T19:57:09.243Z,67.1
2018-03-29T19:58:11.616Z,66.8
2018-03-29T19:59:13.918Z,67.2
2018-03-29T20:00:14.359Z,67.0
2018-03-29T20:01:16.301Z,67.2
2018-03-29T20:02:18.600Z,67.7
2018-03-29T20:03:19.975Z,67.3
2018-03-29T20:04:21.382Z,67.1
2018-03-29T20:05:23.315Z,67.8
2018-03-29T20:06:25.549Z,67.7
2018-03-29T20:07:27.691Z,68.0
2018-03-29T20:08:29.647Z,68.3
2018-03-29T20:09:31.990Z,68.1
2018-03-29T20:10:33.348Z,68.0
2018-03-29T20:11:35.723Z,68.3
2018-03-29T20:12:37.800Z,68.6
2018-03-29T20:13:39.789Z,69.1
2018-03-29T20:14:41.778Z,69.0
2018-03-29T20:15:44.076Z,68.9
2018-03-29T20:16:46.365Z,69.0
2018-03-29T20:17:47.686Z,69.5
2018-03-29T20:18:49.588Z,69.4
2018-03-29T20:19:50.944Z,69.5
2018-03-29T20:20:52.302Z,69.2
2018-03-29T20:21:54.312Z,69.6
2018-03-29T20:22:56.221Z,69.9
2018-03-29T20:23:58.473Z,69.5
2018-03-29T20:25:00.591Z,70.0
2018-03-29T20:26:02.572Z,69.9
2018-03-29T20:27:03.923Z,69.7
2018-03-29T20:28:05.279Z,70.3
2018-03-29T20:29:07.297Z,70.3
2018-03-29T20:30:09.226Z,70.4
2018-03-29T20:31:11.520Z,70.4
2018-03-29T20:32:13.694Z,70.5
2018-03-29T20:33:15.698Z,70.8
2018-03-29T20:34:18.061Z,70.8
2018-03-29T20:35:20.367Z,71.1
2018-03-29T20:36:22.480Z,71.3
2018-03-29T20:37:24.491Z,71.2
2018-03-29T20:38:26.816Z,71.4
2018-03-29T20:39:28.979Z,71.2
2018-03-29T20:40:31.089Z,71.1
2018-03-29T20:41:32.986Z,70.9
2018-03-29T20:42:34.852Z,71.6
2018-03-29T20:43:37.092Z,71.7
2018-03-29T20:44:39.144Z,71.7
2018-03-29T20:45:41.086Z,71.9
2018-03-29T20:46:43.379Z,71.7
2018-03-29T20:47:45.557Z,71.6
2018-03-29T20:48:47.573Z,71.9
2018-03-29T20:49:50.272Z,72.2
2018-03-29T20:50:51.622Z,72.2
2018-03-29T20:51:53.817Z,72.1
2018-03-29T20:52:55.874Z,72.0
2018-03-29T20:53:57.809Z,72.0
2018-03-29T20:54:59.156Z,72.0
2018-03-29T20:56:00.503Z,71.8
2018-03-29T20:57:02.492Z,72.7
2018-03-29T20:58:03.842Z,72.2
2018-03-29T20:59:05.197Z,72.6
2018-03-29T21:00:07.220Z,72.4
2018-03-29T21:01:09.153Z,72.5
2018-03-29T21:02:11.410Z,72.2
2018-03-29T21:03:13.532Z,72.2
2018-03-29T21:04:15.485Z,72.4
2018-03-29T21:05:17.807Z,72.3
2018-03-29T21:06:20.020Z,72.1
2018-03-29T21:07:22.061Z,72.4
2018-03-29T21:08:24.007Z,72.6
2018-03-29T21:09:26.266Z,72.5
2018-03-29T21:10:28.424Z,72.6
2018-03-29T21:11:30.468Z,72.4
2018-03-29T21:12:32.806Z,72.6
2018-03-29T21:13:36.273Z,72.9
2018-03-29T21:14:38.301Z,72.6
2018-03-29T21:15:40.214Z,72.6
2018-03-29T21:16:41.576Z,73.0
2018-03-29T21:17:42.998Z,72.9
2018-03-29T21:18:44.977Z,72.9
2018-03-29T21:19:47.297Z,72.9
2018-03-29T21:20:49.487Z,72.8
2018-03-29T21:21:51.527Z,72.6
2018-03-29T21:22:53.433Z,72.6
2018-03-29T21:23:54.820Z,72.4
2018-03-29T21:24:56.175Z,72.3
2018-03-29T21:25:59.939Z,72.6
2018-03-29T21:27:02.118Z,73.1
2018-03-29T21:28:05.623Z,72.9
2018-03-29T21:29:06.497Z,73.1
2018-03-29T21:30:10.142Z,72.7
2018-03-29T21:31:12.320Z,72.9
2018-03-29T21:32:14.368Z,73.0
2018-03-29T21:33:16.269Z,73.3
2018-03-29T21:34:17.637Z,73.3
2018-03-29T21:35:20.833Z,73.0
2018-03-29T21:36:22.812Z,73.0
2018-03-29T21:37:24.716Z,73.4
2018-03-29T21:38:26.056Z,73.3
2018-03-29T21:39:27.419Z,73.1
2018-03-29T21:40:30.160Z,73.5
2018-03-29T21:41:30.664Z,73.1
2018-03-29T21:42:32.027Z,73.3
2018-03-29T21:43:34.161Z,73.3
2018-03-29T21:44:34.697Z,73.0
2018-03-29T21:45:36.962Z,73.0
2018-03-29T21:46:39.055Z,73.2
2018-03-29T21:47:42.472Z,73.1
2018-03-29T21:48:45.013Z,73.2
2018-03-29T21:49:46.905Z,73.5
2018-03-29T21:50:49.383Z,73.4
2018-03-29T21:51:53.188Z,74.0
2018-03-29T21:52:55.813Z,73.7
2018-03-29T21:53:57.720Z,73.8
2018-03-29T21:55:00.247Z,73.6
2018-03-29T21:56:04.219Z,73.8
2018-03-29T21:57:06.242Z,73.8
2018-03-29T21:58:08.163Z,73.7
2018-03-29T21:59:10.466Z,74.4
2018-03-29T22:00:13.310Z,74.4
2018-03-29T22:01:14.689Z,73.7
2018-03-29T22:02:16.658Z,74.0
2018-03-29T22:03:18.997Z,74.1
2018-03-29T22:04:21.207Z,74.5
2018-03-29T22:05:23.274Z,74.1
2018-03-29T22:06:25.243Z,74.2
2018-03-29T22:07:27.477Z,74.4
2018-03-29T22:08:29.638Z,74.6
2018-03-29T22:09:31.696Z,74.4
2018-03-29T22:10:33.686Z,74.4
2018-03-29T22:11:35.039Z,74.9
2018-03-29T22:12:36.387Z,75.1
2018-03-29T22:13:37.742Z,75.2
2018-03-29T22:14:39.129Z,75.0
2018-03-29T22:15:40.445Z,75.0
2018-03-29T22:16:41.897Z,75.2
2018-03-29T22:17:43.273Z,75.0
2018-03-29T22:18:44.681Z,74.9
2018-03-29T22:19:46.042Z,74.8
2018-03-29T22:20:47.466Z,74.8
2018-03-29T22:21:48.809Z,75.0
2018-03-29T22:22:50.215Z,74.9
2018-03-29T22:23:51.565Z,74.6
2018-03-29T22:24:52.912Z,74.6
2018-03-29T22:25:54.257Z,74.9
2018-03-29T22:26:55.670Z,75.1
2018-03-29T22:27:57.012Z,75.2
2018-03-29T22:28:58.446Z,74.8
2018-03-29T22:29:59.778Z,75.1
2018-03-29T22:31:01.206Z,75.2
2018-03-29T22:32:02.542Z,75.0
2018-03-29T22:33:03.997Z,75.1
2018-03-29T22:34:05.378Z,75.2
2018-03-29T22:35:06.729Z,75.4
2018-03-29T22:36:08.064Z,75.3
2018-03-29T22:37:09.507Z,75.2
2018-03-29T22:38:10.854Z,75.4
2018-03-29T22:39:12.312Z,75.5
2018-03-29T22:40:13.653Z,75.9
2018-03-29T22:41:15.093Z,75.7
2018-03-29T22:42:16.441Z,75.5
2018-03-29T22:43:17.856Z,75.9
2018-03-29T22:44:19.213Z,75.6
2018-03-29T22:45:20.609Z,75.4
2018-03-29T22:46:21.959Z,75.5
2018-03-29T22:47:23.374Z,75.4
2018-03-29T22:48:24.749Z,75.1
2018-03-29T22:49:26.165Z,74.5
2018-03-29T22:50:27.541Z,74.0
2018-03-29T22:51:28.970Z,73.1
2018-03-29T22:52:30.321Z,73.3
2018-03-29T22:53:31.748Z,72.5
2018-03-29T22:54:33.091Z,72.3
2018-03-29T22:55:34.482Z,72.0
2018-03-29T22:56:35.824Z,71.9
2018-03-29T22:57:37.246Z,71.4
2018-03-29T22:58:38.603Z,71.0
2018-03-29T22:59:40.040Z,71.1
2018-03-29T23:00:41.389Z,70.9
2018-03-29T23:01:42.785Z,70.8
2018-03-29T23:02:44.081Z,70.5
2018-03-29T23:03:45.434Z,69.8
2018-03-29T23:04:46.795Z,69.6
2018-03-29T23:05:48.138Z,69.4
2018-03-29T23:06:49.484Z,69.8
2018-03-29T23:07:50.836Z,69.6
2018-03-29T23:08:52.182Z,69.2
2018-03-29T23:09:53.568Z,69.3
2018-03-29T23:10:54.922Z,69.1
2018-03-29T23:11:56.272Z,69.0
2018-03-29T23:12:57.614Z,68.8
2018-03-29T23:13:58.965Z,68.4
2018-03-29T23:15:00.311Z,68.4
2018-03-29T23:16:01.665Z,68.0
2018-03-29T23:17:03.015Z,67.3
2018-03-29T23:18:04.361Z,67.6
2018-03-29T23:19:05.707Z,67.0
2018-03-29T23:20:07.058Z,67.2
2018-03-29T23:21:08.418Z,67.2
2018-03-29T23:22:09.756Z,66.9
2018-03-29T23:23:11.105Z,67.2
2018-03-29T23:24:12.460Z,66.6
2018-03-29T23:25:13.819Z,66.8
2018-03-29T23:26:15.161Z,66.7
2018-03-29T23:27:16.507Z,66.9
2018-03-29T23:28:17.853Z,66.3
2018-03-29T23:29:19.205Z,66.3
2018-03-29T23:30:20.558Z,66.4
2018-03-29T23:31:21.909Z,66.2
2018-03-29T23:32:23.257Z,66.2
2018-03-29T23:33:24.599Z,66.5
2018-03-29T23:34:25.947Z,65.6
2018-03-29T23:35:27.295Z,65.5
2018-03-29T23:36:28.642Z,65.2
2018-03-29T23:37:29.993Z,64.6
2018-03-29T23:38:31.342Z,64.3
2018-03-29T23:39:32.686Z,63.8
2018-03-29T23:40:34.067Z,63.8
2018-03-29T23:41:35.412Z,63.7
2018-03-29T23:42:36.768Z,63.6
2018-03-29T23:43:38.119Z,63.4
2018-03-29T23:44:39.464Z,63.3
2018-03-29T23:45:40.813Z,63.1
2018-03-29T23:46:42.165Z,62.7
2018-03-29T23:47:43.515Z,62.6
2018-03-29T23:48:44.863Z,62.6
2018-03-29T23:49:46.216Z,62.9
2018-03-29T23:50:47.571Z,62.5
2018-03-29T23:51:48.918Z,62.1
2018-03-29T23:52:50.271Z,62.1
2018-03-29T23:53:51.621Z,62.1
2018-03-29T23:54:52.968Z,61.6
2018-03-29T23:55:54.310Z,61.4
2018-03-29T23:56:55.661Z,61.3
2018-03-29T23:57:57.003Z,61.3
2018-03-29T23:58:58.351Z,60.9
2018-03-29T23:59:59.708Z,61.1
